Boa Tyr — LAMU — position and weather

sailwx.info

Track history (hours):
 
Tides and Currents Weather Stations Pressure Air Temp Water Temp Dewpoint Dewpoint Depression Visibility Wind Speed Wind Dir Waves Ship Positions

Boa Tyr

Last reported at 2016-Jan-21 15:04 UTC. Time now 2016-Feb-12 22:30 UTC.
Position N 66°45' E 013°14'.
Warning: this ship's position is 22 days out of date.

Length 31 m; draft 5 m.

Type: Tug. MMSI: 258395000.

Date/timePositionNaut miles runAvg speedWind from/ knotsBaromVisibWave heightAir tempDewpointWater temp
2016-Jan-21 15:04N 66°45' E 013°14'46 6.1
2016-Jan-21 07:29N 66°01' E 012°38'0 0.0
2016-Jan-21 06:29N 66°01' E 012°38'0 0.0
2016-Jan-21 05:21N 66°01' E 012°38'0 0.0
2016-Jan-20 07:28N 66°01' E 012°38'0 0.0
2016-Jan-20 05:33N 66°01' E 012°38'0 0.0
2016-Jan-20 04:22N 66°01' E 012°38'0 0.0
2016-Jan-20 03:10N 66°01' E 012°38'0 0.0
2016-Jan-20 02:29N 66°01' E 012°38'0 0.0
2016-Jan-20 01:25N 66°01' E 012°38'0 0.0
2016-Jan-20 00:27N 66°01' E 012°38'0 0.0
2016-Jan-19 14:23N 66°01' E 012°38'0 0.0
2016-Jan-19 13:33N 66°01' E 012°38'0 0.0
2016-Jan-19 12:33N 66°01' E 012°38'0 0.0
2016-Jan-19 11:21N 66°01' E 012°38'0 0.0
2016-Jan-19 10:32N 66°01' E 012°38'0 0.0
2016-Jan-19 09:21N 66°01' E 012°38'0 0.0
2016-Jan-19 08:32N 66°01' E 012°38'0 0.0
2016-Jan-19 06:19N 66°01' E 012°38'0 0.0
2016-Jan-19 03:28N 66°01' E 012°38'0 0.0
2016-Jan-19 02:29N 66°01' E 012°38'0 0.0
2016-Jan-18 23:14N 66°01' E 012°38'0 0.0
2016-Jan-18 13:25N 66°01' E 012°38'0 0.0
2016-Jan-18 12:14N 66°01' E 012°38'0 0.0
2016-Jan-18 11:28N 66°01' E 012°38'0 0.0
2016-Jan-18 10:33N 66°01' E 012°38'0 0.0
2016-Jan-18 09:33N 66°01' E 012°38'0 0.0
2016-Jan-18 08:33N 66°01' E 012°38'0 0.0
2016-Jan-18 07:04N 66°01' E 012°38'0 0.0
2016-Jan-18 06:23N 66°01' E 012°38'0 0.0
2016-Jan-18 05:04N 66°01' E 012°38'11 0.6
2016-Jan-17 09:06N 66°11' E 012°51'5 8.9
2016-Jan-17 08:33N 66°07' E 012°46'7 0.2
2016-Jan-16 06:12N 66°01' E 012°38'0 0.0
2016-Jan-15 13:04N 66°01' E 012°38'0 0.0
2016-Jan-14 13:26N 66°01' E 012°38'0 0.0
2016-Jan-14 11:28N 66°01' E 012°38'0 0.0
2016-Jan-14 10:28N 66°01' E 012°38'0 0.0
2016-Jan-14 09:31N 66°01' E 012°38'0 0.0
2016-Jan-14 08:21N 66°01' E 012°38'0 0.0
2016-Jan-13 10:30N 66°01' E 012°38'19 1.0
2016-Jan-12 16:33N 66°18' E 012°55'9 9.2
2016-Jan-12 15:32N 66°28' E 012°59'11 7.6
2016-Jan-12 14:07N 66°38' E 013°05'5 9.0
2016-Jan-12 13:31N 66°43' E 013°11'  
Track history (hours):
 
Tides and Currents Weather Stations Pressure Air Temp Water Temp Dewpoint Dewpoint Depression Visibility Wind Speed Wind Dir Waves Ship Positions

Boa Tyr

Last reported at 2016-Jan-21 15:04 UTC. Time now 2016-Feb-12 22:30 UTC.
Position N 66°45' E 013°14'.
Warning: this ship's position is 22 days out of date.

Length 31 m; draft 5 m.

Type: Tug. MMSI: 258395000.

Date/timePositionNaut miles runAvg speedWind from/ knotsBaromVisibWave heightAir tempDewpointWater temp
2016-Jan-21 15:04N 66°45' E 013°14'46 6.1
2016-Jan-21 07:29N 66°01' E 012°38'0 0.0
2016-Jan-21 06:29N 66°01' E 012°38'0 0.0
2016-Jan-21 05:21N 66°01' E 012°38'0 0.0
2016-Jan-20 07:28N 66°01' E 012°38'0 0.0
2016-Jan-20 05:33N 66°01' E 012°38'0 0.0
2016-Jan-20 04:22N 66°01' E 012°38'0 0.0
2016-Jan-20 03:10N 66°01' E 012°38'0 0.0
2016-Jan-20 02:29N 66°01' E 012°38'0 0.0
2016-Jan-20 01:25N 66°01' E 012°38'0 0.0
2016-Jan-20 00:27N 66°01' E 012°38'0 0.0
2016-Jan-19 14:23N 66°01' E 012°38'0 0.0
2016-Jan-19 13:33N 66°01' E 012°38'0 0.0
2016-Jan-19 12:33N 66°01' E 012°38'0 0.0
2016-Jan-19 11:21N 66°01' E 012°38'0 0.0
2016-Jan-19 10:32N 66°01' E 012°38'0 0.0
2016-Jan-19 09:21N 66°01' E 012°38'0 0.0
2016-Jan-19 08:32N 66°01' E 012°38'0 0.0
2016-Jan-19 06:19N 66°01' E 012°38'0 0.0
2016-Jan-19 03:28N 66°01' E 012°38'0 0.0
2016-Jan-19 02:29N 66°01' E 012°38'0 0.0
2016-Jan-18 23:14N 66°01' E 012°38'0 0.0
2016-Jan-18 13:25N 66°01' E 012°38'0 0.0
2016-Jan-18 12:14N 66°01' E 012°38'0 0.0
2016-Jan-18 11:28N 66°01' E 012°38'0 0.0
2016-Jan-18 10:33N 66°01' E 012°38'0 0.0
2016-Jan-18 09:33N 66°01' E 012°38'0 0.0
2016-Jan-18 08:33N 66°01' E 012°38'0 0.0
2016-Jan-18 07:04N 66°01' E 012°38'0 0.0
2016-Jan-18 06:23N 66°01' E 012°38'0 0.0
2016-Jan-18 05:04N 66°01' E 012°38'11 0.6
2016-Jan-17 09:06N 66°11' E 012°51'5 8.9
2016-Jan-17 08:33N 66°07' E 012°46'7 0.2
2016-Jan-16 06:12N 66°01' E 012°38'0 0.0
2016-Jan-15 13:04N 66°01' E 012°38'0 0.0
2016-Jan-14 13:26N 66°01' E 012°38'0 0.0
2016-Jan-14 11:28N 66°01' E 012°38'0 0.0
2016-Jan-14 10:28N 66°01' E 012°38'0 0.0
2016-Jan-14 09:31N 66°01' E 012°38'0 0.0
2016-Jan-14 08:21N 66°01' E 012°38'0 0.0
2016-Jan-13 10:30N 66°01' E 012°38'19 1.0
2016-Jan-12 16:33N 66°18' E 012°55'9 9.2
2016-Jan-12 15:32N 66°28' E 012°59'11 7.6
2016-Jan-12 14:07N 66°38' E 013°05'5 9.0
2016-Jan-12 13:31N 66°43' E 013°11'  

Dump ship's entire track history